createdAt,value
2022-11-02T00:04:47.147Z,1.30
2022-11-02T00:09:48.917Z,1.80
2022-11-02T00:14:50.679Z,1.60
2022-11-02T00:19:52.508Z,1.40
2022-11-02T00:24:54.471Z,1.57
2022-11-02T00:29:56.365Z,1.43
2022-11-02T00:34:58.184Z,1.37
2022-11-02T00:40:00.176Z,1.70
2022-11-02T00:45:01.947Z,1.53
2022-11-02T00:50:04.447Z,1.50
2022-11-02T00:55:09.374Z,1.77
2022-11-02T01:00:12.487Z,1.70
2022-11-02T01:05:14.212Z,1.60
2022-11-02T01:10:15.884Z,2.10
2022-11-02T01:15:17.804Z,1.53
2022-11-02T01:20:19.543Z,1.53
2022-11-02T01:25:21.351Z,1.30
2022-11-02T01:30:22.922Z,1.50
2022-11-02T01:35:24.513Z,1.37
2022-11-02T01:40:26.132Z,1.50
2022-11-02T01:45:27.991Z,1.60
2022-11-02T01:50:30.151Z,1.40
2022-11-02T01:55:33.354Z,1.60
2022-11-02T02:00:35.006Z,1.57
2022-11-02T02:06:05.543Z,1.70
2022-11-02T02:11:33.460Z,1.40
2022-11-02T02:16:56.897Z,1.33
2022-11-02T02:22:15.920Z,1.67
2022-11-02T02:27:39.198Z,1.73
2022-11-02T02:32:45.320Z,1.70
2022-11-02T02:37:54.833Z,1.80
2022-11-02T02:43:03.520Z,1.50
2022-11-02T02:48:10.708Z,1.30
2022-11-02T02:53:16.033Z,1.90
2022-11-02T02:58:24.661Z,1.53
2022-11-02T03:03:27.555Z,1.63
2022-11-02T03:08:29.528Z,2.03
2022-11-02T03:13:42.909Z,1.63
2022-11-02T03:18:53.866Z,1.60
2022-11-02T03:24:01.296Z,1.83
2022-11-02T03:29:22.510Z,1.47
2022-11-02T03:34:27.353Z,1.70
2022-11-02T03:39:40.195Z,1.67
2022-11-02T03:44:43.794Z,1.70
2022-11-02T03:49:47.130Z,1.83
2022-11-02T03:54:54.039Z,1.57
2022-11-02T04:00:19.910Z,1.80
2022-11-02T04:05:32.602Z,1.70
2022-11-02T04:10:58.914Z,1.80
2022-11-02T04:16:00.867Z,1.90
2022-11-02T04:21:02.917Z,2.00
2022-11-02T04:26:05.780Z,1.73
2022-11-02T04:31:13.023Z,2.13
2022-11-02T04:36:15.515Z,1.97
2022-11-02T04:41:39.606Z,1.60
2022-11-02T04:46:45.678Z,1.73
2022-11-02T04:51:50.009Z,1.87
2022-11-02T04:56:54.094Z,1.63
2022-11-02T05:01:58.309Z,2.20
2022-11-02T05:07:01.817Z,1.50
2022-11-02T05:12:07.518Z,1.47
2022-11-02T05:17:09.727Z,1.40
2022-11-02T05:22:13.249Z,2.17
2022-11-02T05:27:15.147Z,1.80
2022-11-02T05:32:19.266Z,1.90
2022-11-02T05:37:21.198Z,2.37
2022-11-02T05:42:22.999Z,1.50
2022-11-02T05:47:24.658Z,1.70
2022-11-02T05:52:26.225Z,1.83
2022-11-02T05:57:28.025Z,1.70
2022-11-02T06:02:29.711Z,1.47
2022-11-02T06:07:31.286Z,2.33
2022-11-02T06:12:33.002Z,1.75
2022-11-02T06:17:40.800Z,1.47
2022-11-02T06:22:42.955Z,1.80
2022-11-02T06:27:55.050Z,1.50
2022-11-02T06:33:02.928Z,1.60
2022-11-02T06:38:06.656Z,2.30
2022-11-02T06:43:16.395Z,1.50
2022-11-02T06:48:18.776Z,1.90
2022-11-02T06:53:20.342Z,1.50
2022-11-02T06:58:23.393Z,1.83
2022-11-02T07:03:24.944Z,1.50
2022-11-02T07:08:27.720Z,1.60
2022-11-02T07:13:29.236Z,1.70
2022-11-02T07:18:30.914Z,2.07
2022-11-02T07:23:32.455Z,1.80
2022-11-02T07:28:37.055Z,1.63
2022-11-02T07:33:38.976Z,1.70
2022-11-02T07:38:41.145Z,1.40
2022-11-02T07:43:44.086Z,1.50
2022-11-02T07:49:07.493Z,1.70
2022-11-02T07:54:09.620Z,1.40
2022-11-02T07:59:12.991Z,1.40
2022-11-02T08:04:15.133Z,1.57
2022-11-02T08:09:16.895Z,1.27
2022-11-02T08:14:18.458Z,1.60
2022-11-02T08:19:20.174Z,1.40
2022-11-02T08:24:21.851Z,1.67
2022-11-02T08:29:26.530Z,1.30
2022-11-02T08:34:28.183Z,1.00
2022-11-02T08:39:29.851Z,1.80
2022-11-02T08:44:31.541Z,1.63
2022-11-02T08:49:33.346Z,1.70
2022-11-02T08:54:34.854Z,1.67
2022-11-02T08:59:36.321Z,1.57
2022-11-02T09:04:37.813Z,1.50
2022-11-02T09:09:39.329Z,1.87
2022-11-02T09:14:40.800Z,1.30
2022-11-02T09:19:42.275Z,1.33
2022-11-02T09:24:43.786Z,1.63
2022-11-02T09:29:45.265Z,1.53
2022-11-02T09:34:47.417Z,1.63
2022-11-02T09:39:48.887Z,1.10
2022-11-02T09:44:56.588Z,1.43
2022-11-02T09:50:00.927Z,1.40
2022-11-02T09:55:05.183Z,1.40
2022-11-02T10:00:13.093Z,1.30
2022-11-02T10:05:14.805Z,1.13
2022-11-02T10:10:40.144Z,1.13
2022-11-02T10:15:46.403Z,1.57
2022-11-02T10:20:51.177Z,1.33
2022-11-02T10:25:52.825Z,1.27
2022-11-02T10:30:54.890Z,1.43
2022-11-02T10:36:17.894Z,1.20
2022-11-02T10:41:39.352Z,1.37
2022-11-02T10:47:04.203Z,1.23
2022-11-02T10:52:06.100Z,1.40
2022-11-02T10:57:15.242Z,1.07
2022-11-02T11:02:18.089Z,1.17
2022-11-02T11:07:26.720Z,1.07
2022-11-02T11:12:38.050Z,1.27
2022-11-02T11:23:20.538Z,1.17
2022-11-02T11:28:26.874Z,0.93
2022-11-02T11:33:29.758Z,1.13
2022-11-02T11:38:31.402Z,1.50
2022-11-02T11:43:38.433Z,1.37
2022-11-02T11:48:51.935Z,1.23
2022-11-02T11:54:16.504Z,1.23
2022-11-02T11:59:42.917Z,1.50
2022-11-02T12:04:44.803Z,1.13
2022-11-02T12:09:49.416Z,2.00
2022-11-02T12:15:07.253Z,1.00
2022-11-02T12:20:31.051Z,1.03
2022-11-02T12:26:10.098Z,1.30
2022-11-02T12:31:31.630Z,0.90
2022-11-02T12:37:32.819Z,1.30
2022-11-02T12:42:43.106Z,1.10
2022-11-02T12:47:59.548Z,1.33
2022-11-02T12:53:22.656Z,1.60
2022-11-02T12:58:27.642Z,1.00
2022-11-02T13:04:04.274Z,1.00
2022-11-02T13:09:19.073Z,1.23
2022-11-02T13:14:21.712Z,1.10
2022-11-02T13:19:31.215Z,0.70
2022-11-02T13:24:43.385Z,1.20
2022-11-02T13:29:47.370Z,1.10
2022-11-02T13:34:51.039Z,0.80
2022-11-02T13:39:55.310Z,1.00
2022-11-02T13:45:42.148Z,1.23
2022-11-02T13:50:47.901Z,1.37
2022-11-02T13:55:55.814Z,1.03
2022-11-02T14:01:03.433Z,1.30
2022-11-02T14:06:11.328Z,1.07
2022-11-02T14:11:12.764Z,1.43
2022-11-02T14:16:43.514Z,1.13
2022-11-02T14:22:05.951Z,1.50
2022-11-02T14:27:13.558Z,1.40
2022-11-02T14:32:21.146Z,1.53
2022-11-02T14:37:34.523Z,1.20
2022-11-02T14:42:47.042Z,0.90
2022-11-02T14:47:48.990Z,1.20
2022-11-02T14:53:00.346Z,0.83
2022-11-02T14:58:16.269Z,1.23
2022-11-02T15:03:41.337Z,1.17
2022-11-02T15:09:00.956Z,1.40
2022-11-02T15:14:02.552Z,0.87
2022-11-02T15:19:40.504Z,1.13
2022-11-02T15:24:42.581Z,1.03
2022-11-02T15:29:44.315Z,1.23
2022-11-02T15:34:48.712Z,1.33
2022-11-02T15:39:55.563Z,1.30
2022-11-02T15:45:14.114Z,1.57
2022-11-02T15:50:45.190Z,1.30
2022-11-02T15:56:05.575Z,1.50
2022-11-02T16:01:20.525Z,1.17
2022-11-02T16:06:27.480Z,1.30
2022-11-02T16:11:29.303Z,1.17
2022-11-02T16:16:35.659Z,1.23
2022-11-02T16:21:41.135Z,1.10
2022-11-02T16:26:43.864Z,1.20
2022-11-02T16:31:45.892Z,1.77
2022-11-02T16:36:47.821Z,1.63
2022-11-02T16:41:51.417Z,1.80
2022-11-02T16:47:06.744Z,2.53
2022-11-02T16:52:23.379Z,1.67
2022-11-02T16:57:30.612Z,1.60
2022-11-02T17:02:38.564Z,2.40
2022-11-02T17:07:43.118Z,2.10
2022-11-02T17:12:45.365Z,2.20
2022-11-02T17:17:47.212Z,3.00
2022-11-02T17:22:59.831Z,1.80
2022-11-02T17:28:05.000Z,2.07
2022-11-02T17:33:12.849Z,1.63
2022-11-02T17:38:14.688Z,1.70
2022-11-02T17:43:16.258Z,1.83
2022-11-02T17:48:17.898Z,1.90
2022-11-02T17:53:19.667Z,1.80
2022-11-02T17:58:21.292Z,1.87
2022-11-02T18:03:28.263Z,2.13
2022-11-02T18:08:55.780Z,1.90
2022-11-02T18:13:57.798Z,1.70
2022-11-02T18:18:59.405Z,1.93
2022-11-02T18:24:00.986Z,2.00
2022-11-02T18:29:04.551Z,1.90
2022-11-02T18:34:06.393Z,1.80
2022-11-02T18:39:08.467Z,1.80
2022-11-02T18:44:15.119Z,1.60
2022-11-02T18:49:17.340Z,1.70
2022-11-02T18:54:20.994Z,1.70
2022-11-02T18:59:22.796Z,2.17
2022-11-02T19:04:24.416Z,2.30
2022-11-02T19:09:29.035Z,1.90
2022-11-02T19:14:33.406Z,1.70
2022-11-02T19:19:35.197Z,1.60
2022-11-02T19:24:36.851Z,1.60
2022-11-02T19:29:41.308Z,2.10
2022-11-02T19:34:43.103Z,1.37
2022-11-02T19:39:44.914Z,1.73
2022-11-02T19:44:46.499Z,1.87
2022-11-02T19:49:48.172Z,2.00
2022-11-02T19:54:49.804Z,1.90
2022-11-02T19:59:51.651Z,2.20
2022-11-02T20:04:53.864Z,2.03
2022-11-02T20:09:58.713Z,1.80
2022-11-02T20:15:01.691Z,2.10
2022-11-02T20:20:05.017Z,1.73
2022-11-02T20:25:07.491Z,2.00
2022-11-02T20:30:09.521Z,1.90
2022-11-02T20:35:13.850Z,1.70
2022-11-02T20:40:16.892Z,1.80
2022-11-02T20:45:18.744Z,1.80
2022-11-02T20:50:25.687Z,1.60
2022-11-02T20:55:27.605Z,1.90
2022-11-02T21:00:29.368Z,1.87
2022-11-02T21:05:31.015Z,1.73
2022-11-02T21:10:32.875Z,1.70
2022-11-02T21:15:35.790Z,2.00
2022-11-02T21:20:37.586Z,2.17
2022-11-02T21:25:39.316Z,1.70
2022-11-02T21:30:41.050Z,1.80
2022-11-02T21:35:42.696Z,1.67
2022-11-02T21:40:44.643Z,2.00
2022-11-02T21:45:57.465Z,1.90
2022-11-02T21:51:05.402Z,2.23
2022-11-02T21:56:12.280Z,1.70
2022-11-02T22:01:36.993Z,2.13
2022-11-02T22:06:39.351Z,1.93
2022-11-02T22:11:45.240Z,1.93
2022-11-02T22:16:48.455Z,1.60
2022-11-02T22:21:50.785Z,1.93
2022-11-02T22:26:52.834Z,1.40
2022-11-02T22:31:56.631Z,2.07
2022-11-02T22:37:18.464Z,2.20
2022-11-02T22:42:21.371Z,1.87
2022-11-02T22:47:23.097Z,2.30
2022-11-02T22:52:24.777Z,2.00
2022-11-02T22:57:41.598Z,2.70
2022-11-02T23:02:45.300Z,2.60
2022-11-02T23:07:47.099Z,2.20
2022-11-02T23:12:54.767Z,2.27
2022-11-02T23:17:56.555Z,2.07
2022-11-02T23:23:30.329Z,2.20
2022-11-02T23:28:50.840Z,2.37
2022-11-02T23:33:52.605Z,2.53
2022-11-02T23:39:13.083Z,2.17
2022-11-02T23:44:16.464Z,2.33
2022-11-02T23:49:25.485Z,2.20
2022-11-02T23:54:45.602Z,2.07
2022-11-02T23:59:47.438Z,2.40
